SBDN/PPB METAR and TAF weather

Enter ICAO airport designator
Station Type Date Time Source
SBDN METAR 2018/12/11 19:00 UTC NOAA

SBDN 111900Z 03008KT 9999 SCT040 34/11 Q1016


Station Type Date Time Source
SBDN Decoded METAR 2018/12/11 19:00 UTC NOAA

Presidente Prudente, Brazil (SBDN) 22-07S 051-23W
Dec 11, 2018 - 02:00 PM EST / 2018.12.11 1900 UTC
Wind: from the NNE (030 degrees) at 9 MPH (8 KT):0
Visibility: greater than 7 mile(s):0
Sky conditions: partly cloudy
Temperature: 93 F (34 C)
Dew Point: 51 F (11 C)
Relative Humidity: 24%
Pressure (altimeter): 30.00 in. Hg (1016 hPa)
ob: SBDN 111900Z 03008KT 9999 SCT040 34/11 Q1016
cycle: 19

Station Type Date Time Source
SBDN TAF 2018/12/11 18:27 UTC NOAA

TAF SBDN 111515Z 1118/1206 06006KT 9999 FEW040 TX34/1118Z TN24/1206Z
BECMG 1120/1122 CAVOK
RMK PDW


Example: see airport list